createdAt,value
2018-01-27T00:01:32.345Z,44.83
2018-01-27T00:03:59.816Z,58.05
2018-01-27T00:06:27.291Z,42.78
2018-01-27T00:08:54.743Z,48.97
2018-01-27T00:11:22.207Z,52.17
2018-01-27T00:13:51.187Z,54.63
2018-01-27T00:16:18.714Z,45.40
2018-01-27T00:18:46.176Z,43.03
2018-01-27T00:21:13.641Z,52.47
2018-01-27T00:23:41.146Z,51.40
2018-01-27T00:26:08.680Z,44.58
2018-01-27T00:28:36.143Z,47.05
2018-01-27T00:31:03.705Z,43.03
2018-01-27T00:33:31.173Z,52.88
2018-01-27T00:35:58.641Z,47.15
2018-01-27T00:38:26.889Z,51.92
2018-01-27T00:40:54.346Z,51.25
2018-01-27T00:43:21.909Z,42.95
2018-01-27T00:45:49.377Z,43.90
2018-01-27T00:48:16.840Z,51.15
2018-01-27T00:50:45.067Z,45.90
2018-01-27T00:53:12.541Z,54.42
2018-01-27T00:55:39.999Z,46.45
2018-01-27T00:58:07.459Z,50.20
2018-01-27T01:00:34.928Z,50.70
2018-01-27T01:03:02.401Z,48.55
2018-01-27T01:05:30.711Z,51.13
2018-01-27T01:07:58.173Z,49.63
2018-01-27T01:10:25.725Z,43.87
2018-01-27T01:12:53.237Z,55.15
2018-01-27T01:15:20.650Z,48.80
2018-01-27T01:17:48.113Z,46.60
2018-01-27T01:20:15.587Z,49.13
2018-01-27T01:22:43.144Z,57.08
2018-01-27T01:25:10.617Z,47.92
2018-01-27T01:27:38.177Z,53.75
2018-01-27T01:30:05.732Z,52.88
2018-01-27T01:32:33.184Z,52.13
2018-01-27T01:35:00.955Z,53.92
2018-01-27T01:37:28.441Z,44.92
2018-01-27T01:39:56.668Z,58.75
2018-01-27T01:42:29.761Z,56.95
2018-01-27T01:44:57.221Z,46.72
2018-01-27T01:47:26.187Z,51.17
2018-01-27T01:49:53.644Z,46.75
2018-01-27T01:52:21.128Z,52.20
2018-01-27T01:54:48.679Z,50.85
2018-01-27T01:57:16.245Z,46.65
2018-01-27T01:59:43.700Z,58.38
2018-01-27T02:02:11.260Z,53.22
2018-01-27T02:04:38.824Z,45.12
2018-01-27T02:07:06.379Z,48.42
2018-01-27T02:09:33.935Z,49.15
2018-01-27T02:12:01.396Z,51.60
2018-01-27T02:14:28.856Z,58.00
2018-01-27T02:16:56.408Z,55.05
2018-01-27T02:19:23.868Z,52.80
2018-01-27T02:21:51.524Z,51.80
2018-01-27T02:24:18.988Z,50.78
2018-01-27T02:26:46.544Z,56.22
2018-01-27T02:29:14.106Z,57.75
2018-01-27T02:31:41.720Z,52.67
2018-01-27T02:34:09.176Z,52.30
2018-01-27T02:36:36.671Z,51.33
2018-01-27T02:39:04.273Z,58.30
2018-01-27T02:41:32.530Z,42.42
2018-01-27T02:44:00.797Z,50.70
2018-01-27T02:46:28.344Z,47.33
2018-01-27T02:48:55.817Z,71.22
2018-01-27T02:51:23.368Z,56.88
2018-01-27T02:53:50.878Z,58.40
2018-01-27T02:56:18.323Z,54.00
2018-01-27T02:58:45.780Z,48.90
2018-01-27T03:01:13.280Z,65.50
2018-01-27T03:03:40.740Z,50.25
2018-01-27T03:06:08.352Z,54.50
2018-01-27T03:08:36.579Z,54.55
2018-01-27T03:11:04.132Z,44.38
2018-01-27T03:13:31.592Z,55.35
2018-01-27T03:15:59.826Z,59.03
2018-01-27T03:18:27.320Z,45.90
2018-01-27T03:20:54.945Z,55.90
2018-01-27T03:23:22.442Z,49.20
2018-01-27T03:25:49.908Z,51.97
2018-01-27T03:28:17.369Z,52.55
2018-01-27T03:30:44.839Z,54.63
2018-01-27T03:33:13.075Z,49.13
2018-01-27T03:35:40.520Z,51.92
2018-01-27T03:38:07.975Z,57.33
2018-01-27T03:40:35.444Z,53.72
2018-01-27T03:43:02.907Z,59.25
2018-01-27T03:45:30.363Z,54.67
2018-01-27T03:47:57.887Z,60.55
2018-01-27T03:50:25.392Z,58.75
2018-01-27T03:52:52.943Z,54.70
2018-01-27T03:55:20.503Z,59.10
2018-01-27T03:57:48.064Z,64.37
2018-01-27T04:00:15.520Z,61.33
2018-01-27T04:02:42.983Z,56.80
2018-01-27T04:05:10.532Z,57.28
2018-01-27T04:07:38.092Z,52.62
2018-01-27T04:10:05.548Z,54.30
2018-01-27T04:12:33.108Z,46.92
2018-01-27T04:15:00.625Z,63.33
2018-01-27T04:17:28.123Z,57.80
2018-01-27T04:19:55.591Z,66.03
2018-01-27T04:22:23.140Z,55.33
2018-01-27T04:24:50.691Z,58.22
2018-01-27T04:27:18.156Z,67.05
2018-01-27T04:29:45.624Z,55.22
2018-01-27T04:32:13.166Z,62.08
2018-01-27T04:34:40.628Z,60.50
2018-01-27T04:37:08.095Z,66.45
2018-01-27T04:39:35.556Z,65.68
2018-01-27T04:42:03.783Z,61.97
2018-01-27T04:44:31.267Z,66.32
2018-01-27T04:46:58.823Z,58.08
2018-01-27T04:49:26.392Z,63.87
2018-01-27T04:51:53.844Z,63.75
2018-01-27T04:54:21.303Z,54.80
2018-01-27T04:56:48.818Z,67.65
2018-01-27T04:59:16.264Z,69.50
2018-01-27T05:01:43.736Z,70.50
2018-01-27T05:04:11.227Z,68.15
2018-01-27T05:06:38.784Z,65.97
2018-01-27T05:09:06.349Z,59.10
2018-01-27T05:11:33.808Z,59.22
2018-01-27T05:14:01.269Z,62.05
2018-01-27T05:16:28.819Z,62.85
2018-01-27T05:18:56.279Z,57.95
2018-01-27T05:21:23.740Z,57.58
2018-01-27T05:23:51.241Z,56.60
2018-01-27T05:26:18.698Z,56.97
2018-01-27T05:28:46.152Z,59.85
2018-01-27T05:31:13.613Z,54.80
2018-01-27T05:33:41.178Z,55.30
2018-01-27T05:36:08.716Z,61.78
2018-01-27T05:38:36.236Z,56.92
2018-01-27T05:41:03.751Z,54.15
2018-01-27T05:43:31.206Z,60.35
2018-01-27T05:45:58.712Z,55.50
2018-01-27T05:48:26.256Z,55.72
2018-01-27T05:50:53.716Z,52.88
2018-01-27T05:53:21.179Z,53.72
2018-01-27T05:55:48.704Z,62.05
2018-01-27T05:58:16.166Z,61.15
2018-01-27T06:00:43.651Z,55.05
2018-01-27T06:03:11.221Z,54.13
2018-01-27T06:05:38.767Z,48.85
2018-01-27T06:08:06.331Z,46.33
2018-01-27T06:10:33.788Z,63.58
2018-01-27T06:13:01.252Z,52.78
2018-01-27T06:15:28.711Z,65.15
2018-01-27T06:17:56.937Z,65.07
2018-01-27T06:20:24.400Z,62.30
2018-01-27T06:22:51.852Z,62.35
2018-01-27T06:25:19.340Z,70.90
2018-01-27T06:27:46.900Z,62.70
2018-01-27T06:30:14.416Z,64.57
2018-01-27T06:32:41.869Z,54.45
2018-01-27T06:35:09.347Z,62.20
2018-01-27T06:37:36.809Z,69.15
2018-01-27T06:40:04.308Z,56.35
2018-01-27T06:42:32.532Z,67.00
2018-01-27T06:45:00.023Z,54.70
2018-01-27T06:47:27.488Z,63.70
2018-01-27T06:49:54.975Z,51.75
2018-01-27T06:52:22.547Z,62.50
2018-01-27T06:54:50.041Z,56.17
2018-01-27T06:57:17.544Z,56.17
2018-01-27T06:59:45.005Z,66.60
2018-01-27T07:02:12.469Z,52.00
2018-01-27T07:04:39.919Z,50.25
2018-01-27T07:07:07.432Z,50.53
2018-01-27T07:09:34.991Z,51.25
2018-01-27T07:12:02.450Z,53.63
2018-01-27T07:14:30.004Z,53.72
2018-01-27T07:16:57.484Z,60.97
2018-01-27T07:19:25.845Z,56.33
2018-01-27T07:21:53.307Z,48.70
2018-01-27T07:24:20.771Z,45.45
2018-01-27T07:26:49.129Z,37.72
2018-01-27T07:29:16.688Z,44.28
2018-01-27T07:31:45.652Z,48.53
2018-01-27T07:34:13.171Z,42.25
2018-01-27T07:36:40.600Z,37.20
2018-01-27T07:39:08.058Z,42.05
2018-01-27T07:41:35.522Z,36.90
2018-01-27T07:44:02.991Z,41.10
2018-01-27T07:46:31.300Z,37.67
2018-01-27T07:48:58.771Z,50.00
2018-01-27T07:51:26.368Z,45.03
2018-01-27T07:53:53.918Z,48.13
2018-01-27T07:56:21.371Z,45.03
2018-01-27T07:58:48.827Z,38.10
2018-01-27T08:01:16.345Z,46.35
2018-01-27T08:03:43.828Z,33.47
2018-01-27T08:06:11.288Z,29.73
2018-01-27T08:08:38.751Z,32.00
2018-01-27T08:11:06.250Z,28.30
2018-01-27T08:13:33.835Z,44.78
2018-01-27T08:16:01.292Z,41.67
2018-01-27T08:18:28.755Z,37.08
2018-01-27T08:20:56.213Z,32.80
2018-01-27T08:23:23.700Z,30.70
2018-01-27T08:25:51.936Z,44.00
2018-01-27T08:28:19.427Z,31.48
2018-01-27T08:30:46.987Z,33.85
2018-01-27T08:33:14.447Z,46.05
2018-01-27T08:35:42.004Z,32.85
2018-01-27T08:38:09.584Z,29.92
2018-01-27T08:40:37.119Z,28.98
2018-01-27T08:43:06.120Z,47.72
2018-01-27T08:45:33.580Z,29.17
2018-01-27T08:48:01.052Z,35.28
2018-01-27T08:50:29.280Z,27.75
2018-01-27T08:52:56.763Z,39.28
2018-01-27T08:55:24.224Z,34.65
2018-01-27T08:57:53.064Z,34.55
2018-01-27T09:00:20.571Z,34.88
2018-01-27T09:02:48.053Z,25.23
2018-01-27T09:05:16.272Z,27.35
2018-01-27T09:07:43.740Z,31.15
2018-01-27T09:10:11.209Z,32.10
2018-01-27T09:12:38.773Z,33.63
2018-01-27T09:15:06.340Z,29.05
2018-01-27T09:17:33.796Z,39.00
2018-01-27T09:20:01.260Z,30.67
2018-01-27T09:22:28.800Z,32.83
2018-01-27T09:24:56.260Z,27.05
2018-01-27T09:27:23.869Z,33.67
2018-01-27T09:29:51.288Z,33.00
2018-01-27T09:32:19.520Z,27.52
2018-01-27T09:34:46.988Z,37.22
2018-01-27T09:37:14.603Z,27.98
2018-01-27T09:39:42.830Z,38.45
2018-01-27T09:42:10.288Z,31.20
2018-01-27T09:44:37.747Z,31.58
2018-01-27T09:47:05.209Z,28.85
2018-01-27T09:49:33.470Z,23.80
2018-01-27T09:52:00.926Z,26.70
2018-01-27T09:54:28.436Z,28.45
2018-01-27T09:56:55.883Z,22.05
2018-01-27T09:59:24.107Z,30.67
2018-01-27T10:01:51.568Z,22.55
2018-01-27T10:04:19.021Z,25.08
2018-01-27T10:06:46.488Z,23.25
2018-01-27T10:09:13.956Z,29.92
2018-01-27T10:11:41.526Z,29.95
2018-01-27T10:14:09.076Z,22.98
2018-01-27T10:16:36.544Z,32.85
2018-01-27T10:19:04.090Z,30.83
2018-01-27T10:21:31.547Z,24.75
2018-01-27T10:23:59.884Z,30.40
2018-01-27T10:26:27.348Z,30.08
2018-01-27T10:28:54.849Z,32.45
2018-01-27T10:31:22.391Z,32.10
2018-01-27T10:33:49.864Z,31.80
2018-01-27T10:36:17.325Z,33.83
2018-01-27T10:38:45.582Z,31.73
2018-01-27T10:41:13.036Z,25.40
2018-01-27T10:43:40.504Z,24.95
2018-01-27T10:46:07.957Z,28.62
2018-01-27T10:48:36.208Z,26.98
2018-01-27T10:51:03.665Z,28.05
2018-01-27T10:53:31.148Z,34.80
2018-01-27T10:55:58.616Z,32.50
2018-01-27T10:58:26.849Z,25.90
2018-01-27T11:00:54.305Z,25.65
2018-01-27T11:03:21.813Z,29.27
2018-01-27T11:05:49.249Z,25.05
2018-01-27T11:08:16.728Z,31.12
2018-01-27T11:10:44.971Z,24.30
2018-01-27T11:13:12.428Z,32.17
2018-01-27T11:15:39.903Z,37.30
2018-01-27T11:18:07.359Z,35.67
2018-01-27T11:20:34.819Z,41.22
2018-01-27T11:23:03.048Z,28.50
2018-01-27T11:25:30.511Z,31.20
2018-01-27T11:27:57.980Z,27.45
2018-01-27T11:30:25.553Z,29.23
2018-01-27T11:32:53.014Z,33.65
2018-01-27T11:35:20.548Z,23.60
2018-01-27T11:37:48.683Z,31.00
2018-01-27T11:40:16.145Z,34.47
2018-01-27T11:42:43.626Z,31.30
2018-01-27T11:45:11.093Z,33.42
2018-01-27T11:47:38.564Z,24.33
2018-01-27T11:50:06.035Z,32.97
2018-01-27T11:52:33.581Z,26.62
2018-01-27T11:55:01.807Z,31.90
2018-01-27T11:57:29.312Z,29.87
2018-01-27T11:59:56.907Z,29.73
2018-01-27T12:02:24.450Z,30.92
2018-01-27T12:04:51.910Z,33.22
2018-01-27T12:07:20.259Z,27.17
2018-01-27T12:09:47.708Z,30.33
2018-01-27T12:12:15.200Z,37.63
2018-01-27T12:14:43.473Z,28.08
2018-01-27T12:17:11.698Z,36.33
2018-01-27T12:19:39.183Z,32.88
2018-01-27T12:22:06.732Z,30.40
2018-01-27T12:24:34.296Z,34.83
2018-01-27T12:27:01.779Z,29.65
2018-01-27T12:29:30.006Z,29.35
2018-01-27T12:31:57.469Z,28.35
2018-01-27T12:34:24.923Z,34.15
2018-01-27T12:36:52.393Z,27.48
2018-01-27T12:39:19.858Z,28.85
2018-01-27T12:41:47.312Z,36.78
2018-01-27T12:44:14.782Z,35.40
2018-01-27T12:46:42.332Z,30.88
2018-01-27T12:49:09.900Z,45.53
2018-01-27T12:51:37.355Z,22.73
2018-01-27T12:54:04.821Z,24.50
2018-01-27T12:56:33.081Z,21.27
2018-01-27T12:59:00.642Z,22.27
2018-01-27T13:01:28.113Z,26.63
2018-01-27T13:03:56.344Z,29.63
2018-01-27T13:06:23.823Z,24.80
2018-01-27T13:08:51.384Z,30.13
2018-01-27T13:11:18.852Z,20.20
2018-01-27T13:13:46.318Z,22.03
2018-01-27T13:16:14.574Z,21.53
2018-01-27T13:18:42.032Z,20.40
2018-01-27T13:21:09.495Z,18.17
2018-01-27T13:23:37.048Z,27.73
2018-01-27T13:26:04.602Z,20.00
2018-01-27T13:28:32.180Z,25.87
2018-01-27T13:31:00.405Z,19.20
2018-01-27T13:33:27.891Z,17.77
2018-01-27T13:35:55.452Z,36.15
2018-01-27T13:38:22.907Z,16.33
2018-01-27T13:40:50.403Z,17.92
2018-01-27T13:43:17.883Z,17.42
2018-01-27T13:45:45.332Z,19.30
2018-01-27T13:48:12.788Z,15.88
2018-01-27T13:50:40.350Z,18.20
2018-01-27T13:53:07.857Z,11.82
2018-01-27T13:55:35.314Z,12.80
2018-01-27T13:58:02.768Z,16.92
2018-01-27T14:00:30.278Z,17.80
2018-01-27T14:02:57.771Z,21.30
2018-01-27T14:05:25.340Z,19.98
2018-01-27T14:07:52.792Z,21.17
2018-01-27T14:10:20.411Z,16.77
2018-01-27T14:12:47.970Z,22.30
2018-01-27T14:15:15.467Z,18.33
2018-01-27T14:17:43.040Z,16.10
2018-01-27T14:20:12.012Z,18.48
2018-01-27T14:22:39.464Z,21.48
2018-01-27T14:25:07.040Z,25.75
2018-01-27T14:27:34.492Z,17.65
2018-01-27T14:30:02.011Z,20.98
2018-01-27T14:32:29.726Z,16.67
2018-01-27T14:34:57.972Z,23.33
2018-01-27T14:37:25.429Z,25.08
2018-01-27T14:39:52.893Z,28.70
2018-01-27T14:42:20.352Z,19.73
2018-01-27T14:44:47.916Z,35.05
2018-01-27T14:47:15.400Z,24.80
2018-01-27T14:49:43.644Z,33.33
2018-01-27T14:52:12.622Z,22.90
2018-01-27T14:54:40.076Z,27.92
2018-01-27T14:57:07.541Z,23.77
2018-01-27T14:59:35.004Z,25.25
2018-01-27T15:02:02.578Z,24.12
2018-01-27T15:04:30.039Z,31.62
2018-01-27T15:06:57.505Z,23.62
2018-01-27T15:09:25.727Z,30.35
2018-01-27T15:11:53.194Z,22.45
2018-01-27T15:14:20.644Z,27.10
2018-01-27T15:16:48.113Z,27.25
2018-01-27T15:19:15.644Z,36.90
2018-01-27T15:21:43.146Z,26.20
2018-01-27T15:24:10.605Z,34.90
2018-01-27T15:26:38.469Z,24.40
2018-01-27T15:29:07.453Z,34.30
2018-01-27T15:31:34.919Z,31.37
2018-01-27T15:34:02.384Z,29.23
2018-01-27T15:36:29.846Z,22.10
2018-01-27T15:38:58.081Z,44.22
2018-01-27T15:41:25.560Z,31.27
2018-01-27T15:43:53.033Z,34.17
2018-01-27T15:46:20.576Z,32.05
2018-01-27T15:48:48.049Z,32.53
2018-01-27T15:51:16.275Z,35.53
2018-01-27T15:53:43.759Z,28.02
2018-01-27T15:56:12.047Z,45.60
2018-01-27T15:58:39.503Z,41.65
2018-01-27T16:01:06.965Z,35.40
2018-01-27T16:03:34.435Z,36.83
2018-01-27T16:06:01.922Z,32.63
2018-01-27T16:08:29.418Z,25.88
2018-01-27T16:10:56.881Z,37.03
2018-01-27T16:13:24.441Z,42.15
2018-01-27T16:15:51.924Z,34.85
2018-01-27T16:18:20.145Z,33.78
2018-01-27T16:20:47.716Z,34.35
2018-01-27T16:23:15.192Z,31.98
2018-01-27T16:25:42.659Z,28.62
2018-01-27T16:28:10.887Z,30.70
2018-01-27T16:30:38.359Z,30.67
2018-01-27T16:33:05.819Z,34.90
2018-01-27T16:35:33.383Z,33.78
2018-01-27T16:38:02.368Z,31.42
2018-01-27T16:40:29.914Z,33.50
2018-01-27T16:42:57.505Z,35.05
2018-01-27T16:45:24.991Z,30.83
2018-01-27T16:47:53.223Z,29.73
2018-01-27T16:50:20.683Z,37.60
2018-01-27T16:52:48.296Z,35.30
2018-01-27T16:55:15.808Z,35.33
2018-01-27T16:57:43.276Z,36.95
2018-01-27T17:00:10.825Z,34.65
2018-01-27T17:02:38.375Z,29.50
2018-01-27T17:05:05.935Z,33.75
2018-01-27T17:07:33.533Z,33.28
2018-01-27T17:10:00.968Z,37.67
2018-01-27T17:12:28.437Z,35.08
2018-01-27T17:14:56.873Z,35.00
2018-01-27T17:17:24.349Z,39.05
2018-01-27T17:19:51.805Z,28.42
2018-01-27T17:22:19.368Z,31.37
2018-01-27T17:24:46.828Z,42.47
2018-01-27T17:27:14.380Z,36.92
2018-01-27T17:29:41.849Z,36.38
2018-01-27T17:32:09.363Z,34.53
2018-01-27T17:34:36.824Z,29.77
2018-01-27T17:37:04.390Z,34.20
2018-01-27T17:39:31.949Z,31.80
2018-01-27T17:41:59.425Z,40.72
2018-01-27T17:44:26.962Z,38.83
2018-01-27T17:46:54.448Z,37.83
2018-01-27T17:49:22.655Z,38.83
2018-01-27T17:51:50.136Z,38.67
2018-01-27T17:54:17.612Z,32.47
2018-01-27T17:56:45.122Z,35.58
2018-01-27T17:59:13.396Z,30.23
2018-01-27T18:01:41.617Z,32.28
2018-01-27T18:04:09.071Z,38.00
2018-01-27T18:06:36.557Z,34.13
2018-01-27T18:09:04.043Z,31.23
2018-01-27T18:11:32.272Z,34.40
2018-01-27T18:13:59.785Z,38.80
2018-01-27T18:16:27.249Z,39.28
2018-01-27T18:18:54.726Z,36.22
2018-01-27T18:21:22.201Z,41.08
2018-01-27T18:23:49.758Z,40.92
2018-01-27T18:26:17.211Z,44.50
2018-01-27T18:28:44.700Z,49.97
2018-01-27T18:31:12.952Z,41.67
2018-01-27T18:33:40.574Z,48.22
2018-01-27T18:36:08.148Z,51.50
2018-01-27T18:38:35.615Z,49.97
2018-01-27T18:41:03.075Z,41.05
2018-01-27T18:43:30.540Z,42.03
2018-01-27T18:45:58.060Z,46.08
2018-01-27T18:48:25.554Z,42.55
2018-01-27T18:50:53.166Z,41.35
2018-01-27T18:53:20.675Z,42.10
2018-01-27T18:55:48.132Z,51.53
2018-01-27T18:58:15.623Z,36.33
2018-01-27T19:00:43.856Z,49.53
2018-01-27T19:03:11.339Z,62.75
2018-01-27T19:05:38.935Z,45.55
2018-01-27T19:08:06.445Z,50.63
2018-01-27T19:10:33.908Z,48.55
2018-01-27T19:13:01.456Z,46.08
2018-01-27T19:15:29.029Z,61.58
2018-01-27T19:17:56.505Z,50.85
2018-01-27T19:20:24.810Z,56.75
2018-01-27T19:22:52.268Z,38.40
2018-01-27T19:25:19.821Z,50.05
2018-01-27T19:27:47.332Z,53.58
2018-01-27T19:30:14.798Z,52.53
2018-01-27T19:32:43.028Z,45.55
2018-01-27T19:35:10.504Z,43.10
2018-01-27T19:37:37.978Z,55.88
2018-01-27T19:40:05.436Z,47.17
2018-01-27T19:42:32.894Z,45.12
2018-01-27T19:45:00.364Z,57.40
2018-01-27T19:47:28.591Z,45.33
2018-01-27T19:49:56.236Z,51.63
2018-01-27T19:52:23.732Z,43.63
2018-01-27T19:54:51.197Z,49.10
2018-01-27T19:57:18.738Z,44.75
2018-01-27T19:59:46.231Z,52.28
2018-01-27T20:02:14.472Z,48.35
2018-01-27T20:04:41.932Z,56.63
2018-01-27T20:07:09.484Z,55.17
2018-01-27T20:09:36.952Z,43.03
2018-01-27T20:12:05.184Z,48.30
2018-01-27T20:14:32.640Z,55.67
2018-01-27T20:17:00.108Z,58.10
2018-01-27T20:19:27.569Z,51.28
2018-01-27T20:21:55.056Z,57.92
2018-01-27T20:24:22.816Z,54.38
2018-01-27T20:26:50.271Z,56.95
2018-01-27T20:29:18.941Z,61.60
2018-01-27T20:31:46.472Z,54.95
2018-01-27T20:34:13.948Z,64.12
2018-01-27T20:36:41.437Z,66.82
2018-01-27T20:39:08.909Z,63.05
2018-01-27T20:41:37.144Z,73.68
2018-01-27T20:44:04.734Z,63.20
2018-01-27T20:46:32.955Z,61.80
2018-01-27T20:49:00.424Z,50.38
2018-01-27T20:51:27.918Z,57.80
2018-01-27T20:53:55.376Z,71.47
2018-01-27T20:56:23.040Z,51.67
2018-01-27T20:58:50.500Z,64.07
2018-01-27T21:01:18.755Z,55.88
2018-01-27T21:03:46.212Z,63.13
2018-01-27T21:06:13.667Z,61.28
2018-01-27T21:08:41.185Z,59.20
2018-01-27T21:11:08.661Z,57.92
2018-01-27T21:13:36.140Z,67.75
2018-01-27T21:16:03.604Z,74.10
2018-01-27T21:18:31.064Z,70.07
2018-01-27T21:20:58.525Z,68.15
2018-01-27T21:23:26.792Z,54.50
2018-01-27T21:25:54.265Z,64.18
2018-01-27T21:28:22.488Z,64.25
2018-01-27T21:30:50.036Z,61.00
2018-01-27T21:33:17.531Z,63.70
2018-01-27T21:35:45.102Z,64.80
2018-01-27T21:38:12.653Z,66.62
2018-01-27T21:40:40.135Z,71.62
2018-01-27T21:43:07.596Z,63.58
2018-01-27T21:45:35.856Z,61.53
2018-01-27T21:48:03.464Z,65.45
2018-01-27T21:50:30.968Z,59.92
2018-01-27T21:52:58.408Z,61.88
2018-01-27T21:55:25.878Z,74.10
2018-01-27T21:57:53.362Z,72.93
2018-01-27T22:00:21.584Z,61.13
2018-01-27T22:02:49.065Z,64.85
2018-01-27T22:05:16.524Z,63.75
2018-01-27T22:07:44.030Z,58.35
2018-01-27T22:10:11.527Z,56.30
2018-01-27T22:12:39.089Z,49.17
2018-01-27T22:15:06.544Z,52.08
2018-01-27T22:17:34.097Z,57.38
2018-01-27T22:20:01.722Z,45.28
2018-01-27T22:22:29.299Z,46.78
2018-01-27T22:24:56.760Z,47.05
2018-01-27T22:27:24.216Z,46.67
2018-01-27T22:29:51.752Z,50.38
2018-01-27T22:32:19.354Z,53.35
2018-01-27T22:34:46.816Z,43.03
2018-01-27T22:37:14.283Z,51.08
2018-01-27T22:39:41.743Z,49.38
2018-01-27T22:42:10.058Z,50.45
2018-01-27T22:44:37.561Z,47.25
2018-01-27T22:47:05.124Z,54.97
2018-01-27T22:49:32.587Z,43.70
2018-01-27T22:52:00.111Z,43.70
2018-01-27T22:54:28.291Z,46.30
2018-01-27T22:56:55.748Z,39.75
2018-01-27T22:59:23.212Z,53.95
2018-01-27T23:01:50.671Z,47.70
2018-01-27T23:04:18.253Z,47.95
2018-01-27T23:06:45.788Z,43.20
2018-01-27T23:09:13.250Z,41.65
2018-01-27T23:11:40.703Z,39.90
2018-01-27T23:14:08.163Z,47.92
2018-01-27T23:16:35.719Z,38.55
2018-01-27T23:19:03.305Z,34.00
2018-01-27T23:21:31.678Z,46.13
2018-01-27T23:23:59.896Z,42.55
2018-01-27T23:26:27.386Z,37.65
2018-01-27T23:28:54.858Z,40.03
2018-01-27T23:31:22.323Z,41.60
2018-01-27T23:33:49.843Z,32.42
2018-01-27T23:36:17.329Z,33.13
2018-01-27T23:38:44.771Z,34.80
2018-01-27T23:41:12.331Z,39.80
2018-01-27T23:43:39.790Z,35.90
2018-01-27T23:46:07.344Z,33.88
2018-01-27T23:48:34.912Z,26.65
2018-01-27T23:51:02.472Z,28.05
2018-01-27T23:53:30.703Z,27.55
2018-01-27T23:55:58.202Z,33.60
2018-01-27T23:58:26.436Z,23.92
